Time;durP1;ratioP1;P1;durP2;ratioP2;P2;SDS_P1;SDS_P2;PMS_P1;PMS_P2;Temp;Humidity;BMP_temperature;BMP_pressure;BME280_temperature;BME280_humidity;BME280_pressure;Samples;Min_cycle;Max_cycle;Signal;HPM_P1;HPM_P2
2022/08/07 00:01:19;;;;;;;2.63;1.40;;;16.30;91.60;;;;;;5045154;28;20103;-32
2022/08/07 00:03:45;;;;;;;1.85;1.23;;;16.20;91.70;;;;;;5044943;28;20919;-33
2022/08/07 00:06:10;;;;;;;2.28;1.23;;;16.20;91.70;;;;;;5045653;28;20047;-33
2022/08/07 00:08:36;;;;;;;1.55;1.45;;;16.20;91.80;;;;;;5044949;28;20036;-33
2022/08/07 00:11:05;;;;;;;1.40;1.30;;;16.20;92.10;;;;;;5045784;28;20154;-33
2022/08/07 00:13:32;;;;;;;1.58;1.45;;;16.10;91.80;;;;;;5044898;28;20029;-34
2022/08/07 00:15:58;;;;;;;1.70;1.60;;;16.10;91.90;;;;;;5045424;28;20159;-33
2022/08/07 00:18:26;;;;;;;1.60;1.40;;;16.10;92.00;;;;;;5044840;28;20787;-34
2022/08/07 00:20:55;;;;;;;2.20;1.48;;;16.10;92.00;;;;;;5045170;28;20059;-34
2022/08/07 00:23:21;;;;;;;1.83;1.50;;;16.00;92.10;;;;;;5045311;28;20029;-33
2022/08/07 00:25:47;;;;;;;1.48;1.38;;;16.00;92.10;;;;;;5044781;28;20075;-33
2022/08/07 00:28:13;;;;;;;1.65;1.50;;;16.00;92.10;;;;;;5044856;28;20021;-33
2022/08/07 00:30:39;;;;;;;2.25;1.60;;;16.00;92.10;;;;;;5045234;28;20033;-33
2022/08/07 00:33:04;;;;;;;1.92;1.63;;;16.00;92.20;;;;;;5044455;28;20020;-33
2022/08/07 00:35:30;;;;;;;2.20;1.80;;;15.90;92.20;;;;;;5045644;28;20417;-33
2022/08/07 00:37:57;;;;;;;1.70;1.60;;;15.90;92.30;;;;;;5045197;28;20509;-33
2022/08/07 00:40:23;;;;;;;2.15;1.88;;;15.90;92.30;;;;;;5045661;28;20400;-33
2022/08/07 00:42:48;;;;;;;1.65;1.55;;;15.80;92.30;;;;;;5044872;28;20063;-34
2022/08/07 00:45:14;;;;;;;1.73;1.58;;;15.90;92.30;;;;;;5048731;28;20021;-35
2022/08/07 00:47:39;;;;;;;1.70;1.60;;;15.80;92.30;;;;;;5048846;28;20116;-34
2022/08/07 00:50:06;;;;;;;2.95;1.60;;;15.80;92.30;;;;;;5048524;28;20391;-34
2022/08/07 00:52:32;;;;;;;2.03;1.50;;;15.80;92.30;;;;;;5049057;28;20475;-33
2022/08/07 00:54:57;;;;;;;1.77;1.50;;;15.80;92.40;;;;;;5048092;28;20057;-34
2022/08/07 00:57:24;;;;;;;1.85;1.70;;;15.70;92.40;;;;;;5048965;28;20037;-33
2022/08/07 00:59:50;;;;;;;2.28;1.80;;;15.70;92.40;;;;;;5049369;28;20108;-34
2022/08/07 01:02:16;;;;;;;1.90;1.60;;;15.70;92.50;;;;;;5046059;28;20052;-33
2022/08/07 01:04:42;;;;;;;2.28;1.80;;;15.70;92.50;;;;;;5047422;28;20024;-33
2022/08/07 01:07:07;;;;;;;2.50;2.00;;;15.60;92.50;;;;;;5048949;28;20579;-33
2022/08/07 01:09:33;;;;;;;2.13;1.67;;;15.60;92.60;;;;;;5048020;28;20029;-33
2022/08/07 01:11:59;;;;;;;2.17;1.98;;;15.60;92.60;;;;;;5048218;28;20033;-33
2022/08/07 01:14:25;;;;;;;1.77;1.67;;;15.60;92.60;;;;;;5048293;28;20496;-33
2022/08/07 01:16:52;;;;;;;2.95;2.05;;;15.60;92.70;;;;;;5048139;28;20025;-33
2022/08/07 01:19:19;;;;;;;2.50;1.88;;;15.50;92.60;;;;;;5048428;28;20025;-35
2022/08/07 01:21:46;;;;;;;1.90;1.80;;;15.50;92.70;;;;;;5047080;28;20040;-33
2022/08/07 01:24:13;;;;;;;2.40;2.03;;;15.50;92.70;;;;;;5047794;28;20499;-33
2022/08/07 01:26:38;;;;;;;2.55;1.85;;;15.50;92.80;;;;;;5048249;28;20033;-32
2022/08/07 01:29:04;;;;;;;2.05;1.85;;;15.40;92.80;;;;;;5047493;28;20043;-34
2022/08/07 01:31:33;;;;;;;3.00;2.00;;;15.40;92.90;;;;;;5048169;28;20041;-33
2022/08/07 01:34:00;;;;;;;2.50;2.20;;;15.40;92.90;;;;;;5048281;28;20115;-33
2022/08/07 01:36:27;;;;;;;4.35;2.00;;;15.30;92.90;;;;;;5047859;28;20029;-34
2022/08/07 01:38:53;;;;;;;1.75;1.65;;;15.30;93.00;;;;;;5047434;28;20036;-34
2022/08/07 01:41:20;;;;;;;2.72;2.35;;;15.30;93.00;;;;;;5048414;28;20041;-33
2022/08/07 01:43:47;;;;;;;2.22;2.03;;;15.30;93.10;;;;;;5046931;28;20039;-34
2022/08/07 01:46:14;;;;;;;2.33;1.92;;;15.30;93.20;;;;;;5047706;28;20021;-34
2022/08/07 01:48:41;;;;;;;1.90;1.70;;;15.20;93.20;;;;;;5047926;28;20036;-34
2022/08/07 01:51:12;;;;;;;3.08;1.83;;;15.20;93.20;;;;;;5047017;28;20428;-34
2022/08/07 01:53:44;;;;;;;2.70;2.50;;;15.10;93.30;;;;;;5047277;28;20033;-33
2022/08/07 01:56:14;;;;;;;2.53;2.20;;;15.10;93.30;;;;;;5047822;28;20130;-33
2022/08/07 01:58:51;;;;;;;2.00;1.85;;;15.10;93.30;;;;;;5046544;28;20033;-34
2022/08/07 02:01:26;;;;;;;1.90;1.70;;;15.00;93.40;;;;;;5045947;28;20088;-33
2022/08/07 02:03:58;;;;;;;4.45;2.22;;;15.10;93.50;;;;;;5047319;28;20574;-34
2022/08/07 02:06:26;;;;;;;2.50;2.30;;;15.00;93.50;;;;;;5045030;28;20021;-33
2022/08/07 02:08:54;;;;;;;2.45;2.17;;;14.90;93.50;;;;;;5047263;28;20392;-35
2022/08/07 02:11:20;;;;;;;2.70;1.92;;;14.90;93.50;;;;;;5046353;28;20488;-34
2022/08/07 02:13:47;;;;;;;2.58;2.10;;;14.90;93.60;;;;;;5046911;28;20051;-33
2022/08/07 02:16:15;;;;;;;2.38;2.17;;;14.90;93.60;;;;;;5047297;28;20033;-33
2022/08/07 02:18:43;;;;;;;2.38;2.13;;;14.80;93.70;;;;;;5046613;28;20060;-33
2022/08/07 02:21:08;;;;;;;3.15;2.70;;;14.80;93.80;;;;;;5047310;28;20033;-33
2022/08/07 02:23:38;;;;;;;3.13;2.83;;;14.80;93.90;;;;;;5047303;28;20044;-34
2022/08/07 02:26:06;;;;;;;2.80;2.60;;;14.70;94.00;;;;;;5046366;28;20553;-34
2022/08/07 02:28:33;;;;;;;2.40;2.17;;;14.70;94.00;;;;;;5047153;28;20421;-33
2022/08/07 02:31:01;;;;;;;2.88;2.63;;;14.70;94.00;;;;;;5046884;28;20040;-34
2022/08/07 02:33:28;;;;;;;2.65;2.45;;;14.60;94.20;;;;;;5046398;28;20025;-33
2022/08/07 02:35:55;;;;;;;4.35;2.72;;;14.60;94.20;;;;;;5046905;28;20132;-43
2022/08/07 02:38:26;;;;;;;3.08;2.78;;;14.60;94.30;;;;;;5047882;28;20037;-43
2022/08/07 02:40:53;;;;;;;3.38;2.90;;;14.50;94.40;;;;;;5045899;28;20029;-43
2022/08/07 02:43:19;;;;;;;2.40;2.20;;;14.50;94.40;;;;;;5047334;28;20093;-42
2022/08/07 02:45:46;;;;;;;2.75;2.55;;;14.50;94.50;;;;;;5046692;28;20104;-44
2022/08/07 02:48:12;;;;;;;2.90;2.60;;;14.40;94.50;;;;;;5046271;28;20017;-42
2022/08/07 02:50:42;;;;;;;2.70;2.45;;;14.50;94.60;;;;;;5046255;28;20810;-43
2022/08/07 02:53:11;;;;;;;2.72;2.40;;;14.40;94.60;;;;;;5046202;28;20472;-43
2022/08/07 02:55:43;;;;;;;4.57;3.00;;;14.40;94.70;;;;;;5046615;28;20021;-43
2022/08/07 02:58:18;;;;;;;3.40;3.10;;;14.30;94.70;;;;;;5046889;28;20024;-44
2022/08/07 03:00:47;;;;;;;4.28;2.95;;;14.30;94.90;;;;;;5046009;28;20373;-43
2022/08/07 03:03:15;;;;;;;4.18;3.50;;;14.30;94.90;;;;;;5043440;28;20029;-44
2022/08/07 03:05:41;;;;;;;3.70;3.33;;;14.30;95.00;;;;;;5045415;28;20033;-43
2022/08/07 03:08:07;;;;;;;3.67;3.03;;;14.20;95.20;;;;;;5045687;28;20055;-43
2022/08/07 03:10:34;;;;;;;3.38;3.08;;;14.20;95.30;;;;;;5046349;28;20082;-43
2022/08/07 03:13:01;;;;;;;4.85;3.45;;;14.10;95.40;;;;;;5045972;28;20152;-43
2022/08/07 03:15:27;;;;;;;3.35;3.05;;;14.10;95.60;;;;;;5045528;28;20473;-43
2022/08/07 03:17:53;;;;;;;5.38;3.47;;;14.10;95.60;;;;;;5045963;28;20043;-43
2022/08/07 03:20:19;;;;;;;3.58;3.28;;;14.00;95.60;;;;;;5046393;28;20554;-44
2022/08/07 03:22:46;;;;;;;4.88;3.55;;;14.00;95.70;;;;;;5045069;28;20460;-43
2022/08/07 03:25:11;;;;;;;4.03;3.33;;;14.10;95.70;;;;;;5046187;28;20043;-43
2022/08/07 03:27:40;;;;;;;3.97;3.42;;;14.00;95.70;;;;;;5046114;28;20388;-43
2022/08/07 03:30:07;;;;;;;3.88;3.42;;;14.00;95.80;;;;;;5045917;28;20033;-43
2022/08/07 03:32:37;;;;;;;3.63;3.33;;;14.00;95.80;;;;;;5045901;28;20043;-43
2022/08/07 03:35:06;;;;;;;5.15;3.95;;;14.00;95.80;;;;;;5046026;28;20025;-44
2022/08/07 03:37:35;;;;;;;4.50;3.38;;;14.00;95.80;;;;;;5045106;28;20033;-43
2022/08/07 03:40:02;;;;;;;4.10;3.70;;;14.00;95.80;;;;;;5046205;28;20029;-43
2022/08/07 03:42:28;;;;;;;4.45;4.05;;;14.00;95.80;;;;;;5045190;28;20480;-44
2022/08/07 03:44:54;;;;;;;4.30;3.85;;;14.00;95.90;;;;;;5045963;28;20029;-43
2022/08/07 03:47:20;;;;;;;4.35;3.72;;;14.10;95.90;;;;;;5045778;28;20501;-43
2022/08/07 03:49:46;;;;;;;4.25;3.85;;;14.10;95.90;;;;;;5044596;28;20017;-44
2022/08/07 03:52:13;;;;;;;4.70;3.92;;;14.10;95.90;;;;;;5046083;28;20123;-43
2022/08/07 03:54:38;;;;;;;4.45;3.85;;;14.10;95.90;;;;;;5045272;28;20025;-43
2022/08/07 03:57:06;;;;;;;4.38;3.60;;;14.10;95.90;;;;;;5045490;28;20036;-43
2022/08/07 03:59:31;;;;;;;4.88;4.38;;;14.20;95.90;;;;;;5045303;28;20112;-43
2022/08/07 04:01:57;;;;;;;4.13;3.55;;;14.20;95.90;;;;;;5045028;28;20139;-43
2022/08/07 04:04:23;;;;;;;4.32;3.85;;;14.20;95.90;;;;;;5044990;28;20033;-43
2022/08/07 04:06:49;;;;;;;4.70;4.20;;;14.20;95.80;;;;;;5045418;28;20033;-43
2022/08/07 04:09:15;;;;;;;4.68;3.72;;;14.20;95.90;;;;;;5045333;28;20029;-43
2022/08/07 04:11:42;;;;;;;5.95;4.32;;;14.20;95.80;;;;;;5044833;28;20378;-43
2022/08/07 04:14:09;;;;;;;5.25;4.75;;;14.20;95.80;;;;;;5044822;28;20075;-43
2022/08/07 04:16:35;;;;;;;4.50;4.10;;;14.30;95.80;;;;;;5045508;28;20025;-43
2022/08/07 04:19:02;;;;;;;4.90;4.40;;;14.30;95.90;;;;;;5048556;28;20113;-42
2022/08/07 04:21:27;;;;;;;4.88;4.32;;;14.30;95.90;;;;;;5049759;28;20033;-43
2022/08/07 04:23:53;;;;;;;5.65;4.55;;;14.30;95.90;;;;;;5049180;28;20051;-43
2022/08/07 04:26:19;;;;;;;5.68;4.75;;;14.30;95.90;;;;;;5048884;28;20111;-43
2022/08/07 04:28:44;;;;;;;5.63;4.53;;;14.30;95.90;;;;;;5048630;28;20025;-43
2022/08/07 04:31:10;;;;;;;4.72;4.22;;;14.30;95.90;;;;;;5049848;28;20043;-42
2022/08/07 04:33:38;;;;;;;5.50;4.30;;;14.30;95.90;;;;;;5048697;28;20025;-44
2022/08/07 04:36:07;;;;;;;5.35;4.05;;;14.30;95.90;;;;;;5049110;28;20040;-43
2022/08/07 04:38:33;;;;;;;4.40;4.00;;;14.30;95.90;;;;;;5048777;28;20021;-43
2022/08/07 04:40:59;;;;;;;4.60;4.10;;;14.30;95.90;;;;;;5048588;28;20107;-43
2022/08/07 04:43:29;;;;;;;5.82;4.55;;;14.20;95.90;;;;;;5049565;28;20100;-43
2022/08/07 04:46:19;;;;;;;4.55;4.10;;;14.20;96.00;;;;;;5048543;28;20127;-43
2022/08/07 04:48:51;;;;;;;6.03;4.88;;;14.20;96.00;;;;;;5029211;28;20381;-42
2022/08/07 04:51:31;;;;;;;5.07;4.57;;;14.20;96.00;;;;;;5046310;28;20063;-43
2022/08/07 04:54:13;;;;;;;4.80;4.30;;;14.20;96.00;;;;;;5048235;28;20013;-43
2022/08/07 04:56:46;;;;;;;6.13;4.50;;;14.20;96.10;;;;;;5048895;28;20037;-43
2022/08/07 04:59:40;;;;;;;5.18;4.68;;;14.10;96.10;;;;;;5049005;28;20495;-43
2022/08/07 05:02:09;;;;;;;5.47;4.25;;;14.10;96.20;;;;;;5047930;28;20126;-43
2022/08/07 05:04:45;;;;;;;5.43;4.00;;;14.10;96.20;;;;;;5049221;28;20025;-44
2022/08/07 05:07:40;;;;;;;4.45;4.05;;;14.10;96.20;;;;;;5048575;28;20032;-43
2022/08/07 05:10:18;;;;;;;4.97;4.00;;;14.00;96.30;;;;;;5048041;28;20044;-44
2022/08/07 05:12:51;;;;;;;4.82;4.30;;;14.00;96.20;;;;;;5048749;28;20116;-42
2022/08/07 05:15:21;;;;;;;6.10;3.97;;;14.00;96.30;;;;;;5047940;28;20025;-43
2022/08/07 05:17:50;;;;;;;5.55;4.22;;;14.00;96.30;;;;;;5048495;28;20119;-43
2022/08/07 05:20:20;;;;;;;4.93;4.00;;;14.00;96.60;;;;;;5048947;28;20108;-43
2022/08/07 05:22:50;;;;;;;6.68;3.90;;;14.00;96.40;;;;;;5046869;28;20674;-43
2022/08/07 05:25:18;;;;;;;4.80;4.30;;;14.00;96.40;;;;;;5049281;28;20056;-43
2022/08/07 05:27:46;;;;;;;5.72;4.40;;;14.00;96.40;;;;;;5047169;28;20075;-43
2022/08/07 05:30:12;;;;;;;5.55;4.47;;;14.10;96.40;;;;;;5047761;28;20207;-44
2022/08/07 05:32:39;;;;;;;5.30;4.65;;;14.10;96.40;;;;;;5047614;28;20124;-44
2022/08/07 05:35:06;;;;;;;6.05;4.57;;;14.10;96.40;;;;;;5048214;28;20104;-43
2022/08/07 05:37:32;;;;;;;6.57;5.30;;;14.20;96.40;;;;;;5047620;28;20025;-43
2022/08/07 05:39:59;;;;;;;6.55;5.05;;;14.20;96.50;;;;;;5047657;28;20551;-43
2022/08/07 05:42:25;;;;;;;5.25;4.28;;;14.30;96.60;;;;;;5047011;28;20029;-43
2022/08/07 05:44:53;;;;;;;5.53;4.72;;;14.30;96.60;;;;;;5048023;28;20048;-43
2022/08/07 05:47:19;;;;;;;7.57;4.65;;;14.40;96.60;;;;;;5048117;28;20365;-43
2022/08/07 05:49:49;;;;;;;5.20;4.70;;;14.40;96.90;;;;;;5047719;28;20053;-43
2022/08/07 05:52:15;;;;;;;4.70;4.30;;;14.50;96.70;;;;;;5048193;28;20039;-42
2022/08/07 05:54:41;;;;;;;6.50;4.97;;;14.50;96.90;;;;;;5047887;28;20117;-44
2022/08/07 05:57:08;;;;;;;7.03;5.00;;;14.50;96.70;;;;;;5047619;28;20036;-43
2022/08/07 05:59:37;;;;;;;4.45;4.05;;;14.60;96.70;;;;;;5047648;28;20503;-43
2022/08/07 06:02:05;;;;;;;5.57;4.18;;;14.60;96.70;;;;;;5047223;28;20125;-42
2022/08/07 06:04:34;;;;;;;4.97;4.45;;;14.70;96.80;;;;;;5046185;28;20029;-43
2022/08/07 06:07:04;;;;;;;4.43;4.03;;;14.80;96.80;;;;;;5048050;28;20117;-44
2022/08/07 06:09:31;;;;;;;4.75;4.25;;;14.80;96.80;;;;;;5047494;28;20039;-43
2022/08/07 06:11:57;;;;;;;4.22;3.78;;;14.80;96.80;;;;;;5046707;28;20107;-43
2022/08/07 06:14:23;;;;;;;4.40;4.00;;;14.90;96.80;;;;;;5047375;28;20033;-43
2022/08/07 06:16:51;;;;;;;5.22;4.72;;;15.00;96.70;;;;;;5047417;28;20039;-43
2022/08/07 06:19:18;;;;;;;5.22;4.47;;;15.00;96.70;;;;;;5046763;28;20028;-42
2022/08/07 06:21:45;;;;;;;5.82;4.95;;;15.10;96.60;;;;;;5047278;28;20550;-42
2022/08/07 06:24:11;;;;;;;5.20;4.50;;;15.20;96.60;;;;;;5047006;28;20039;-44
2022/08/07 06:26:41;;;;;;;6.28;4.85;;;15.20;96.50;;;;;;5046602;28;20107;-44
2022/08/07 06:29:07;;;;;;;4.88;4.28;;;15.40;96.50;;;;;;5047265;28;20025;-42
2022/08/07 06:31:33;;;;;;;4.20;3.75;;;15.40;96.50;;;;;;5046702;28;20032;-43
2022/08/07 06:33:58;;;;;;;4.95;4.38;;;15.50;96.50;;;;;;5047178;28;20040;-44
2022/08/07 06:36:27;;;;;;;4.20;3.80;;;15.50;96.40;;;;;;5046864;28;20028;-44
2022/08/07 06:38:53;;;;;;;5.45;4.35;;;15.60;96.40;;;;;;5045594;28;20031;-43
2022/08/07 06:41:54;;;;;;;5.53;3.83;;;15.60;96.30;;;;;;5048519;28;20025;-43
2022/08/07 06:44:21;;;;;;;5.07;4.30;;;15.70;96.40;;;;;;5042861;28;20044;-43
2022/08/07 06:46:47;;;;;;;5.18;3.90;;;15.80;96.30;;;;;;5045505;28;20035;-44
2022/08/07 06:49:13;;;;;;;4.60;3.72;;;15.80;96.30;;;;;;5044535;28;20017;-44
2022/08/07 06:51:42;;;;;;;5.22;3.67;;;15.90;96.30;;;;;;5045030;28;20633;-43
2022/08/07 06:54:10;;;;;;;3.85;3.55;;;15.90;96.30;;;;;;5044983;28;20033;-43
2022/08/07 06:56:38;;;;;;;5.00;3.65;;;16.00;96.30;;;;;;5045600;28;20031;-44
2022/08/07 06:59:10;;;;;;;4.25;3.75;;;16.00;96.30;;;;;;5045484;28;20020;-43
2022/08/07 07:01:38;;;;;;;4.30;3.80;;;16.00;96.30;;;;;;5034588;28;20076;-43
2022/08/07 07:04:04;;;;;;;3.85;3.13;;;16.10;96.30;;;;;;5044981;28;20523;-43
2022/08/07 07:06:31;;;;;;;3.28;2.97;;;16.10;96.20;;;;;;5045332;28;20036;-43
2022/08/07 07:09:25;;;;;;;5.13;3.78;;;16.20;96.20;;;;;;5045555;28;20021;-43
2022/08/07 07:12:00;;;;;;;4.53;3.50;;;16.30;96.20;;;;;;5044106;28;20044;-43
2022/08/07 07:14:31;;;;;;;4.45;3.53;;;16.30;96.20;;;;;;5044415;28;20075;-44
2022/08/07 07:17:03;;;;;;;4.43;3.90;;;16.40;96.20;;;;;;5045894;28;20051;-43
2022/08/07 07:19:32;;;;;;;4.30;3.40;;;16.50;96.20;;;;;;5045149;28;20040;-43
2022/08/07 07:22:00;;;;;;;4.15;3.40;;;16.50;96.10;;;;;;5044377;28;20033;-43
2022/08/07 07:24:26;;;;;;;4.72;3.60;;;16.60;96.10;;;;;;5044904;28;20100;-44
2022/08/07 07:26:55;;;;;;;3.88;3.28;;;16.60;96.10;;;;;;5045860;28;20028;-43
2022/08/07 07:29:26;;;;;;;3.55;3.25;;;16.70;96.00;;;;;;5044626;28;20428;-43
2022/08/07 07:31:55;;;;;;;6.63;3.45;;;16.80;96.00;;;;;;5045282;28;20021;-43
2022/08/07 07:34:29;;;;;;;4.18;3.47;;;16.90;96.20;;;;;;5045300;28;20435;-43
2022/08/07 07:36:57;;;;;;;3.72;3.00;;;16.90;95.90;;;;;;5044680;28;20029;-43
2022/08/07 07:39:25;;;;;;;3.55;3.25;;;17.00;95.90;;;;;;5045560;28;20033;-43
2022/08/07 07:41:50;;;;;;;3.40;3.03;;;17.10;95.80;;;;;;5044615;28;20265;-43
2022/08/07 07:44:19;;;;;;;3.50;3.17;;;17.10;95.70;;;;;;5045198;28;20029;-43
2022/08/07 07:46:47;;;;;;;4.30;3.03;;;17.20;95.70;;;;;;5044371;28;20040;-44
2022/08/07 07:49:17;;;;;;;3.58;2.53;;;17.20;95.60;;;;;;5044409;28;20562;-43
2022/08/07 07:51:44;;;;;;;3.08;2.30;;;17.20;95.50;;;;;;5045101;28;20021;-43
2022/08/07 07:54:13;;;;;;;2.67;2.42;;;17.30;95.50;;;;;;5045086;28;20515;-43
2022/08/07 07:56:41;;;;;;;2.47;2.20;;;17.30;95.40;;;;;;5045038;28;20025;-43
2022/08/07 07:59:08;;;;;;;2.47;2.28;;;17.40;95.30;;;;;;5045846;28;20148;-43
2022/08/07 08:01:38;;;;;;;3.17;2.65;;;17.50;95.20;;;;;;5044918;28;20060;-43
2022/08/07 08:04:07;;;;;;;2.58;2.30;;;17.60;95.00;;;;;;5044751;28;20053;-44
2022/08/07 08:06:34;;;;;;;2.25;2.05;;;17.70;94.80;;;;;;5044823;28;20547;-43
2022/08/07 08:09:03;;;;;;;1.98;1.80;;;17.80;94.60;;;;;;5045339;28;20036;-43
2022/08/07 08:11:29;;;;;;;1.95;1.75;;;17.80;94.40;;;;;;5044557;28;20017;-43
2022/08/07 08:13:55;;;;;;;2.42;1.83;;;17.90;94.10;;;;;;5045924;28;20052;-43
2022/08/07 08:16:26;;;;;;;3.45;1.80;;;18.00;93.80;;;;;;5045382;28;20346;-43
2022/08/07 08:18:55;;;;;;;2.58;1.75;;;18.10;93.70;;;;;;5044875;28;20742;-43
2022/08/07 08:27:08;;;;;;;2.70;1.55;;;18.40;93.10;;;;;;5045364;28;20458;-43
2022/08/07 08:30:00;;;;;;;1.90;1.80;;;18.50;92.70;;;;;;5034530;28;20036;-43
2022/08/07 08:32:30;;;;;;;2.22;1.98;;;18.60;92.40;;;;;;5044687;28;20029;-43
2022/08/07 08:34:58;;;;;;;1.70;1.50;;;18.60;92.40;;;;;;5045272;28;20033;-43
2022/08/07 08:37:28;;;;;;;2.08;1.65;;;18.60;92.40;;;;;;5044834;28;20087;-43
2022/08/07 08:39:54;;;;;;;2.85;2.00;;;18.60;92.30;;;;;;5031629;28;20428;-43
2022/08/07 08:42:29;;;;;;;2.10;1.80;;;18.70;92.30;;;;;;5043158;28;20606;-44
2022/08/07 08:45:33;;;;;;;2.13;1.70;;;18.70;92.30;;;;;;5043225;28;20552;-43
2022/08/07 08:48:24;;;;;;;1.50;1.40;;;18.80;92.20;;;;;;5031596;28;20479;-44
2022/08/07 08:50:55;;;;;;;2.63;1.42;;;18.80;92.20;;;;;;5043847;28;20032;-44
2022/08/07 08:53:41;;;;;;;1.65;1.50;;;18.80;92.30;;;;;;5044010;28;20100;-44
2022/08/07 08:56:27;;;;;;;2.25;1.60;;;18.90;92.10;;;;;;5044851;28;20473;-43
2022/08/07 08:58:58;;;;;;;1.95;1.77;;;18.90;91.80;;;;;;5044532;28;20017;-44
2022/08/07 09:01:52;;;;;;;2.47;1.60;;;19.00;91.70;;;;;;5044823;28;20056;-43
2022/08/07 09:04:50;;;;;;;1.83;1.42;;;19.10;91.60;;;;;;5045440;28;20029;-44
2022/08/07 09:07:23;;;;;;;2.00;1.38;;;19.20;91.50;;;;;;5012089;28;20037;-44
2022/08/07 09:10:10;;;;;;;3.15;1.30;;;19.30;91.50;;;;;;5045077;28;20057;-43
2022/08/07 09:13:09;;;;;;;1.35;1.10;;;19.40;91.20;;;;;;5048525;28;20563;-43
2022/08/07 09:15:37;;;;;;;1.50;1.17;;;19.40;90.90;;;;;;5048366;28;20120;-44
2022/08/07 09:18:09;;;;;;;1.30;1.20;;;19.50;90.80;;;;;;5048857;28;20063;-44
2022/08/07 09:20:53;;;;;;;1.93;1.30;;;19.60;90.50;;;;;;5047127;28;20101;-44
2022/08/07 09:23:36;;;;;;;1.63;1.40;;;19.70;90.50;;;;;;5048729;28;20028;-43
2022/08/07 09:26:28;;;;;;;1.90;1.30;;;19.80;90.30;;;;;;5045417;28;20498;-44
2022/08/07 09:29:01;;;;;;;1.65;1.55;;;19.90;90.20;;;;;;5048287;28;20037;-44
2022/08/07 09:31:35;;;;;;;2.45;1.52;;;20.00;89.90;;;;;;5048079;28;20128;-44
2022/08/07 09:34:30;;;;;;;2.22;1.63;;;20.10;89.60;;;;;;5047726;28;20033;-43
2022/08/07 09:37:27;;;;;;;2.50;1.50;;;20.10;89.30;;;;;;5032774;28;20084;-43
2022/08/07 09:39:55;;;;;;;1.75;1.65;;;20.20;88.80;;;;;;5048157;28;20046;-43
2022/08/07 09:42:48;;;;;;;1.73;1.63;;;20.20;88.60;;;;;;5047352;28;20048;-43
2022/08/07 09:45:38;;;;;;;1.67;1.58;;;20.20;88.60;;;;;;5048285;28;20073;-44
2022/08/07 09:48:11;;;;;;;3.35;1.67;;;20.30;88.40;;;;;;5047578;28;20112;-44
2022/08/07 09:50:55;;;;;;;;;;;20.40;87.90;;;;;;5046332;28;20083;-44
2022/08/07 09:53:23;;;;;;;2.15;1.60;;;20.50;87.90;;;;;;5048305;28;19915;-42
2022/08/07 09:56:19;;;;;;;1.77;1.40;;;20.60;87.80;;;;;;5046667;28;20039;-43
2022/08/07 09:58:58;;;;;;;1.58;1.13;;;20.60;87.60;;;;;;5047665;28;20029;-43
2022/08/07 10:01:45;;;;;;;2.25;1.10;;;20.70;87.20;;;;;;5047831;28;20565;-44
2022/08/07 10:04:43;;;;;;;1.52;1.27;;;20.80;86.70;;;;;;5041509;28;20565;-43
2022/08/07 10:07:40;;;;;;;1.50;1.40;;;20.80;86.50;;;;;;5047847;28;20100;-43
2022/08/07 10:10:33;;;;;;;2.58;1.90;;;20.80;86.40;;;;;;5047239;28;20120;-43
2022/08/07 10:13:19;;;;;;;;;;;20.80;85.10;;;;;;5036528;28;20029;-43
2022/08/07 10:15:50;;;;;;;1.75;1.65;;;20.70;84.60;;;;;;5046383;28;20435;-43
2022/08/07 10:18:54;;;;;;;2.35;1.88;;;20.80;84.20;;;;;;5047075;28;20032;-43
2022/08/07 10:21:28;;;;;;;2.08;1.70;;;20.70;84.20;;;;;;5038652;28;20055;-43
2022/08/07 10:24:21;;;;;;;1.63;1.45;;;20.70;84.50;;;;;;5046713;28;20486;-43
2022/08/07 10:26:52;;;;;;;;;;;20.70;84.50;;;;;;5047750;28;20028;-44
2022/08/07 10:29:29;;;;;;;1.60;1.50;;;20.70;84.40;;;;;;5047917;28;19915;-43
2022/08/07 10:32:30;;;;;;;2.10;1.90;;;20.70;83.80;;;;;;5046150;28;20453;-43
2022/08/07 10:35:25;;;;;;;1.70;1.60;;;20.90;83.60;;;;;;5047463;28;20036;-43
2022/08/07 10:38:25;;;;;;;2.10;1.90;;;20.90;83.40;;;;;;5046534;28;20039;-43
2022/08/07 10:41:15;;;;;;;2.00;1.70;;;21.00;83.10;;;;;;5047142;28;20482;-43
2022/08/07 10:44:14;;;;;;;3.03;1.73;;;21.00;82.90;;;;;;5042904;28;20049;-43
2022/08/07 10:46:54;;;;;;;1.60;1.50;;;21.00;82.20;;;;;;5044876;28;20078;-43
2022/08/07 10:49:34;;;;;;;1.75;1.63;;;21.10;82.30;;;;;;5037608;28;20025;-43
2022/08/07 10:52:13;;;;;;;1.58;1.30;;;21.00;82.20;;;;;;5045933;28;20463;-44
2022/08/07 10:54:51;;;;;;;1.85;1.73;;;21.00;81.50;;;;;;5047001;28;20032;-43
2022/08/07 10:57:29;;;;;;;2.72;1.88;;;21.10;81.10;;;;;;5046498;28;20056;-44
2022/08/07 11:00:05;;;;;;;2.03;1.70;;;21.20;80.40;;;;;;5046349;28;20017;-43
2022/08/07 11:02:38;;;;;;;3.00;2.10;;;21.30;80.50;;;;;;5045750;28;20088;-44
2022/08/07 11:05:25;;;;;;;2.85;1.60;;;21.30;80.40;;;;;;5026588;28;20468;-42
2022/08/07 11:08:08;;;;;;;1.98;1.55;;;21.40;80.40;;;;;;5035806;28;20040;-43
2022/08/07 11:10:44;;;;;;;2.40;2.20;;;21.50;80.10;;;;;;5046589;28;20074;-43
2022/08/07 11:13:23;;;;;;;2.22;1.80;;;21.60;77.60;;;;;;5045688;28;20025;-44
2022/08/07 11:15:54;;;;;;;2.22;1.90;;;21.70;77.90;;;;;;5046237;28;20032;-43
2022/08/07 11:18:36;;;;;;;2.25;1.75;;;21.80;77.90;;;;;;5046557;28;20025;-44
2022/08/07 11:21:33;;;;;;;1.58;1.48;;;21.80;77.80;;;;;;5045301;28;20051;-44
2022/08/07 11:24:36;;;;;;;1.83;1.73;;;21.90;78.00;;;;;;5045894;28;20167;-44
2022/08/07 11:27:05;;;;;;;1.73;1.48;;;22.10;77.40;;;;;;5025067;28;20123;-44
2022/08/07 11:29:33;;;;;;;1.35;1.25;;;22.20;77.20;;;;;;5042493;28;20033;-43
2022/08/07 11:32:13;;;;;;;2.63;1.83;;;22.30;77.00;;;;;;5045969;28;20044;-43
2022/08/07 11:34:58;;;;;;;1.52;1.42;;;22.60;76.10;;;;;;5044855;28;20060;-43
2022/08/07 11:37:58;;;;;;;1.80;1.70;;;22.80;76.10;;;;;;5026334;28;20029;-43
2022/08/07 11:41:03;;;;;;;1.70;1.60;;;23.00;75.50;;;;;;5045617;28;20140;-43
2022/08/07 11:43:37;;;;;;;2.28;1.63;;;23.20;75.20;;;;;;5044986;28;20060;-43
2022/08/07 11:46:13;;;;;;;1.73;1.63;;;23.30;75.10;;;;;;5045976;28;20021;-43
2022/08/07 11:49:12;;;;;;;1.65;1.40;;;23.50;75.00;;;;;;5044917;28;20040;-44
2022/08/07 11:52:19;;;;;;;1.42;1.30;;;23.40;75.00;;;;;;5037976;28;20037;-43
2022/08/07 11:55:26;;;;;;;2.05;1.70;;;23.40;73.50;;;;;;5036776;28;20052;-43
2022/08/07 11:58:15;;;;;;;2.85;2.10;;;23.30;73.10;;;;;;5025511;28;20036;-43
2022/08/07 12:01:14;;;;;;;2.78;2.10;;;23.10;72.20;;;;;;5042051;28;20033;-43
2022/08/07 12:03:51;;;;;;;2.22;2.03;;;22.90;72.60;;;;;;5044724;28;20082;-43
2022/08/07 12:06:47;;;;;;;2.03;1.83;;;22.80;73.20;;;;;;5045378;28;20031;-44
2022/08/07 12:09:19;;;;;;;1.67;1.58;;;22.80;73.80;;;;;;5044668;28;20041;-44
2022/08/07 12:11:48;;;;;;;2.00;1.65;;;22.80;74.10;;;;;;5044629;28;20886;-44
2022/08/07 12:14:22;;;;;;;1.90;1.70;;;22.90;74.40;;;;;;5045863;28;20029;-45
2022/08/07 12:17:00;;;;;;;2.03;1.80;;;23.00;74.10;;;;;;5041841;28;20120;-44
2022/08/07 12:19:34;;;;;;;1.80;1.70;;;23.20;74.10;;;;;;5045625;28;20025;-44
2022/08/07 12:22:11;;;;;;;1.67;1.58;;;23.30;73.70;;;;;;5045431;28;20045;-44
2022/08/07 12:25:51;;;;;;;1.60;1.50;;;23.40;73.80;;;;;;5044872;28;20505;-43
2022/08/07 12:27:32;;;;;;;1.65;1.55;;;23.40;74.00;;;;;;5044946;28;20037;-44
2022/08/07 12:30:05;;;;;;;1.73;1.45;;;23.50;74.00;;;;;;5044470;28;20021;-43
2022/08/07 12:32:59;;;;;;;1.63;1.40;;;23.50;73.70;;;;;;5045130;28;20546;-44
2022/08/07 12:35:26;;;;;;;1.65;1.50;;;23.40;73.50;;;;;;5044953;28;20035;-44
2022/08/07 12:37:54;;;;;;;1.42;1.30;;;23.50;73.70;;;;;;5044645;28;20025;-44
2022/08/07 12:40:23;;;;;;;4.35;1.67;;;23.40;73.60;;;;;;5049454;28;20035;-43
2022/08/07 12:42:57;;;;;;;1.45;1.35;;;23.40;73.70;;;;;;5048680;28;20049;-43
2022/08/07 12:45:28;;;;;;;1.20;1.08;;;23.50;73.90;;;;;;5048286;28;20801;-44
2022/08/07 12:48:06;;;;;;;2.90;1.50;;;23.50;73.90;;;;;;5049141;28;20032;-43
2022/08/07 12:50:38;;;;;;;1.55;1.30;;;23.60;73.50;;;;;;5048854;28;20035;-44
2022/08/07 12:53:18;;;;;;;2.13;1.80;;;23.80;73.50;;;;;;5048249;28;20025;-43
2022/08/07 12:55:50;;;;;;;1.80;1.65;;;23.90;73.00;;;;;;5049042;28;20492;-43
2022/08/07 12:58:17;;;;;;;2.55;1.60;;;24.10;72.80;;;;;;5048807;28;20048;-44
2022/08/07 13:00:43;;;;;;;1.70;1.60;;;24.20;72.60;;;;;;5049205;28;20100;-43
2022/08/07 13:03:34;;;;;;;2.58;1.42;;;24.30;72.10;;;;;;5049481;28;20116;-43
2022/08/07 13:06:25;;;;;;;1.88;1.35;;;24.40;72.10;;;;;;5048329;28;20028;-44
2022/08/07 13:09:21;;;;;;;2.15;1.73;;;24.60;72.10;;;;;;5037632;28;20318;-44
2022/08/07 13:11:59;;;;;;;1.50;1.40;;;24.60;71.40;;;;;;5048515;28;20033;-43
2022/08/07 13:14:53;;;;;;;1.70;1.50;;;24.60;71.40;;;;;;5048479;28;20025;-43
2022/08/07 13:17:37;;;;;;;1.48;1.38;;;24.60;71.70;;;;;;5048699;28;20492;-44
2022/08/07 13:20:10;;;;;;;1.60;1.30;;;24.60;71.20;;;;;;5048286;28;20037;-44
2022/08/07 13:22:47;;;;;;;1.40;1.30;;;24.60;71.20;;;;;;5048542;28;20029;-44
2022/08/07 13:25:22;;;;;;;1.67;1.40;;;24.60;71.20;;;;;;5049252;28;20033;-44